Time;durP1;ratioP1;P1;durP2;ratioP2;P2;SDS_P1;SDS_P2;PMS_P1;PMS_P2;Temp;Humidity;BMP_temperature;BMP_pressure;BME280_temperature;BME280_humidity;BME280_pressure;Samples;Min_cycle;Max_cycle;Signal;HPM_P1;HPM_P2
2022/07/18 00:01:38;;;;;;;12.05;7.90;;;19.00;99.90;;;;;;4890277;29;20053;-75
2022/07/18 00:04:03;;;;;;;9.88;6.85;;;18.90;99.90;;;;;;4889932;29;20053;-76
2022/07/18 00:06:29;;;;;;;9.10;6.55;;;18.90;99.90;;;;;;4894224;29;20056;-75
2022/07/18 00:08:55;;;;;;;10.70;7.35;;;18.90;99.90;;;;;;4890931;29;20052;-77
2022/07/18 00:11:21;;;;;;;10.10;7.32;;;18.80;99.90;;;;;;4893258;29;20064;-77
2022/07/18 00:13:47;;;;;;;8.93;6.85;;;18.70;99.90;;;;;;4892941;29;20115;-75
2022/07/18 00:16:13;;;;;;;9.82;6.93;;;18.60;99.90;;;;;;4893771;29;20092;-77
2022/07/18 00:18:39;;;;;;;8.73;7.07;;;18.50;99.90;;;;;;4893255;29;20044;-77
2022/07/18 00:21:05;;;;;;;9.77;7.15;;;18.50;99.90;;;;;;4893458;29;20503;-77
2022/07/18 00:23:31;;;;;;;9.55;7.00;;;18.40;99.90;;;;;;4884141;29;20068;-76
2022/07/18 00:25:56;;;;;;;10.68;7.30;;;18.30;99.90;;;;;;4891981;29;20552;-75
2022/07/18 00:28:22;;;;;;;9.75;7.13;;;18.20;99.90;;;;;;4894238;29;20124;-75
2022/07/18 00:30:48;;;;;;;10.73;6.88;;;18.20;99.90;;;;;;4889569;29;20045;-76
2022/07/18 00:33:13;;;;;;;10.93;8.23;;;18.10;99.90;;;;;;4892365;29;20048;-77
2022/07/18 00:35:39;;;;;;;9.98;7.28;;;18.10;99.90;;;;;;4893609;29;20053;-75
2022/07/18 00:38:05;;;;;;;11.73;7.18;;;17.90;99.90;;;;;;4891331;29;20700;-76
2022/07/18 00:40:31;;;;;;;9.15;7.03;;;17.90;99.90;;;;;;4891462;29;20124;-77
2022/07/18 00:42:57;;;;;;;9.47;7.53;;;17.80;99.90;;;;;;4892828;29;20052;-75
2022/07/18 00:45:23;;;;;;;9.05;7.55;;;17.70;99.90;;;;;;4893219;29;20100;-76
2022/07/18 00:47:51;;;;;;;11.30;8.27;;;17.70;99.90;;;;;;4893800;29;20500;-75
2022/07/18 00:50:21;;;;;;;12.13;8.07;;;17.60;99.90;;;;;;4892903;29;20575;-75
2022/07/18 00:52:47;;;;;;;10.60;7.78;;;17.50;99.90;;;;;;4889555;29;20089;-76
2022/07/18 00:55:13;;;;;;;8.57;7.38;;;17.50;99.90;;;;;;4880617;29;20053;-77
2022/07/18 00:57:40;;;;;;;12.95;8.30;;;17.40;99.90;;;;;;4892713;29;20052;-75
2022/07/18 01:02:57;;;;;;;9.98;7.38;;;17.30;99.90;;;;;;4876628;29;20053;-74
2022/07/18 01:05:23;;;;;;;10.57;7.10;;;17.40;99.90;;;;;;4889772;29;21038;-76
2022/07/18 01:07:51;;;;;;;11.32;8.05;;;17.30;99.90;;;;;;4888259;29;20115;-76
2022/07/18 01:10:17;;;;;;;9.38;7.68;;;17.30;99.90;;;;;;4891388;29;20104;-74
2022/07/18 01:12:44;;;;;;;12.65;8.15;;;17.30;99.90;;;;;;4889299;29;20401;-75
2022/07/18 01:15:10;;;;;;;10.32;7.93;;;17.30;99.90;;;;;;4890869;29;20493;-75
2022/07/18 01:17:36;;;;;;;13.93;8.43;;;17.20;99.90;;;;;;4893378;29;20052;-76
2022/07/18 01:20:03;;;;;;;10.30;8.35;;;17.20;99.90;;;;;;4891684;29;20051;-76
2022/07/18 01:22:29;;;;;;;17.50;8.25;;;17.20;99.90;;;;;;4888295;29;20041;-76
2022/07/18 01:24:55;;;;;;;9.98;7.47;;;17.20;99.90;;;;;;4893049;29;20071;-76
2022/07/18 01:27:22;;;;;;;11.43;8.07;;;17.20;99.90;;;;;;4889356;29;20048;-77
2022/07/18 01:29:50;;;;;;;12.18;8.55;;;17.20;99.90;;;;;;4894823;29;20488;-77
2022/07/18 01:32:16;;;;;;;11.00;7.82;;;17.20;99.90;;;;;;4892475;29;20044;-74
2022/07/18 01:34:42;;;;;;;12.10;8.00;;;17.20;99.90;;;;;;4890910;29;20074;-75
2022/07/18 01:37:09;;;;;;;12.90;8.55;;;17.10;99.90;;;;;;4893276;29;20048;-75
2022/07/18 01:39:35;;;;;;;11.13;7.53;;;17.10;99.90;;;;;;4893219;29;20048;-77
2022/07/18 01:42:07;;;;;;;12.82;8.23;;;17.10;99.90;;;;;;4894941;29;20049;-74
2022/07/18 01:44:34;;;;;;;13.32;8.05;;;17.00;99.90;;;;;;4894151;29;20129;-75
2022/07/18 01:47:00;;;;;;;11.20;7.78;;;17.00;99.90;;;;;;4892593;29;20048;-78
2022/07/18 01:49:28;;;;;;;9.10;7.83;;;17.00;99.90;;;;;;4895765;29;20056;-75
2022/07/18 01:51:54;;;;;;;11.18;8.05;;;16.90;99.90;;;;;;4891178;29;20173;-75
2022/07/18 01:54:24;;;;;;;11.15;8.05;;;16.90;99.90;;;;;;4893895;29;20048;-75
2022/07/18 01:56:50;;;;;;;10.82;8.02;;;16.90;99.90;;;;;;4893510;29;20049;-74
2022/07/18 01:59:17;;;;;;;11.02;7.90;;;16.90;99.90;;;;;;4895560;29;20448;-74
2022/07/18 02:01:43;;;;;;;13.77;8.20;;;16.90;99.90;;;;;;4894523;29;20051;-77
2022/07/18 02:04:09;;;;;;;11.18;8.60;;;17.00;99.90;;;;;;4895904;29;20449;-77
2022/07/18 02:06:34;;;;;;;11.32;8.50;;;16.90;99.90;;;;;;4894787;29;20052;-75
2022/07/18 02:09:00;;;;;;;12.00;8.80;;;16.90;99.90;;;;;;4895073;29;20055;-75
2022/07/18 02:11:26;;;;;;;11.27;8.07;;;16.90;99.90;;;;;;4894464;29;20464;-76
2022/07/18 02:13:51;;;;;;;11.27;8.05;;;16.80;99.90;;;;;;4895421;29;20045;-76
2022/07/18 02:16:18;;;;;;;11.77;8.98;;;16.80;99.90;;;;;;4893448;29;20456;-76
2022/07/18 02:18:43;;;;;;;10.73;9.03;;;16.80;99.90;;;;;;4891278;29;20131;-74
2022/07/18 02:21:17;;;;;;;12.45;9.13;;;16.70;99.90;;;;;;4893292;29;20131;-76
2022/07/18 02:23:43;;;;;;;12.30;8.32;;;16.70;99.90;;;;;;4896042;29;20062;-74
2022/07/18 02:26:09;;;;;;;12.75;8.48;;;16.60;99.90;;;;;;4893889;29;20040;-75
2022/07/18 02:28:36;;;;;;;10.77;8.23;;;16.70;99.90;;;;;;4897288;29;20488;-74
2022/07/18 02:31:04;;;;;;;11.05;8.50;;;16.60;99.90;;;;;;4894352;29;20060;-76
2022/07/18 02:33:29;;;;;;;;;;;16.60;99.90;;;;;;4895655;29;20055;-76
2022/07/18 02:35:55;;;;;;;11.20;8.25;;;16.40;99.90;;;;;;4890958;29;20018;-74
2022/07/18 02:38:21;;;;;;;12.73;8.35;;;16.40;99.90;;;;;;4892606;29;20051;-76
2022/07/18 02:40:49;;;;;;;11.77;8.55;;;16.40;99.90;;;;;;4895534;29;20059;-74
2022/07/18 02:43:15;;;;;;;12.95;9.27;;;16.30;99.90;;;;;;4895532;29;20390;-76
2022/07/18 02:45:42;;;;;;;11.32;8.25;;;16.30;99.90;;;;;;4892942;29;20048;-75
2022/07/18 02:48:08;;;;;;;12.32;8.65;;;16.30;99.90;;;;;;4895880;29;20822;-77
2022/07/18 02:50:33;;;;;;;13.05;8.88;;;16.30;99.90;;;;;;4893509;29;20139;-75
2022/07/18 02:52:59;;;;;;;10.38;7.80;;;16.30;99.90;;;;;;4895115;29;20052;-76
2022/07/18 02:55:25;;;;;;;12.13;8.40;;;16.30;99.90;;;;;;4893529;29;20139;-75
2022/07/18 02:57:51;;;;;;;11.52;8.25;;;16.30;99.90;;;;;;4892169;29;20052;-75
2022/07/18 03:00:18;;;;;;;13.73;8.43;;;16.20;99.90;;;;;;4891565;29;20080;-75
2022/07/18 03:02:44;;;;;;;12.00;8.70;;;16.20;99.90;;;;;;4894612;29;20051;-75
2022/07/18 03:05:11;;;;;;;12.90;8.60;;;16.20;99.90;;;;;;4893331;29;20444;-74
2022/07/18 03:07:36;;;;;;;11.38;8.80;;;16.10;99.90;;;;;;4894466;29;20044;-76
2022/07/18 03:10:04;;;;;;;10.25;8.15;;;16.10;99.90;;;;;;4894550;29;20136;-77
2022/07/18 03:12:29;;;;;;;12.63;9.23;;;16.10;99.90;;;;;;4892010;29;20044;-75
2022/07/18 03:14:55;;;;;;;12.10;8.27;;;16.00;99.90;;;;;;4891507;29;20040;-75
2022/07/18 03:17:21;;;;;;;11.32;8.32;;;16.00;99.90;;;;;;4893577;29;20072;-76
2022/07/18 03:19:46;;;;;;;11.48;8.77;;;16.00;99.90;;;;;;4891227;29;20040;-77
2022/07/18 03:22:12;;;;;;;11.68;8.73;;;15.90;99.90;;;;;;4894766;29;20132;-75
2022/07/18 03:24:38;;;;;;;10.70;8.43;;;15.90;99.90;;;;;;4892983;29;20189;-74
2022/07/18 03:27:03;;;;;;;13.02;9.13;;;15.80;99.90;;;;;;4893813;29;20037;-74
2022/07/18 03:29:29;;;;;;;11.25;8.48;;;15.90;99.90;;;;;;4886303;29;20051;-75
2022/07/18 03:31:54;;;;;;;11.93;8.98;;;15.80;99.90;;;;;;4895114;29;20049;-76
2022/07/18 03:34:20;;;;;;;10.52;8.30;;;15.80;99.90;;;;;;4890140;29;20051;-76
2022/07/18 03:36:46;;;;;;;15.63;9.10;;;15.80;99.90;;;;;;4893395;29;20052;-75
2022/07/18 03:39:12;;;;;;;11.23;8.52;;;15.70;99.90;;;;;;4890861;29;20116;-75
2022/07/18 03:41:38;;;;;;;12.32;8.57;;;15.70;99.90;;;;;;4894499;29;20044;-75
2022/07/18 03:44:05;;;;;;;12.05;8.73;;;15.70;99.90;;;;;;4894502;29;20440;-76
2022/07/18 03:46:31;;;;;;;11.45;8.35;;;15.60;99.90;;;;;;4892746;29;20045;-78
2022/07/18 03:48:57;;;;;;;11.32;8.68;;;15.70;99.90;;;;;;4891758;29;20068;-74
2022/07/18 03:51:23;;;;;;;11.98;8.55;;;15.70;99.90;;;;;;4894769;29;20106;-75
2022/07/18 03:53:48;;;;;;;11.68;8.57;;;15.70;99.90;;;;;;4893424;29;20112;-78
2022/07/18 03:56:15;;;;;;;11.82;8.30;;;15.70;99.90;;;;;;4894672;29;20045;-77
2022/07/18 03:58:40;;;;;;;10.25;7.97;;;15.80;99.90;;;;;;4892643;29;20102;-77
2022/07/18 04:01:06;;;;;;;10.48;8.27;;;15.80;99.90;;;;;;4890659;29;20465;-76
2022/07/18 04:03:32;;;;;;;13.27;8.25;;;15.80;99.90;;;;;;4891715;29;20045;-76
2022/07/18 04:05:57;;;;;;;14.18;8.40;;;15.80;99.90;;;;;;4894129;29;20067;-76
2022/07/18 04:08:23;;;;;;;9.82;8.02;;;15.90;99.90;;;;;;4893133;29;20052;-76
2022/07/18 04:10:49;;;;;;;10.05;7.20;;;15.90;99.90;;;;;;4889088;29;20160;-76
2022/07/18 04:13:15;;;;;;;10.57;7.47;;;15.90;99.90;;;;;;4894818;29;20052;-75
2022/07/18 04:15:42;;;;;;;10.73;7.72;;;16.00;99.90;;;;;;4892838;29;20400;-77
2022/07/18 04:18:08;;;;;;;10.13;7.10;;;16.00;99.90;;;;;;4892120;29;20044;-75
2022/07/18 04:20:35;;;;;;;10.73;6.70;;;16.10;99.90;;;;;;4891287;29;20065;-75
2022/07/18 04:23:03;;;;;;;;;;;16.20;99.90;;;;;;4892938;29;20033;-77
2022/07/18 04:25:40;;;;;;;9.40;6.65;;;16.20;99.90;;;;;;4890914;29;19931;-75
2022/07/18 04:28:09;;;;;;;9.23;6.07;;;16.30;99.90;;;;;;4886475;29;20060;-76
2022/07/18 04:30:35;;;;;;;9.85;6.47;;;16.30;99.90;;;;;;4889873;29;20128;-76
2022/07/18 04:33:03;;;;;;;9.63;6.85;;;16.30;99.90;;;;;;4890566;29;20044;-75
2022/07/18 04:35:29;;;;;;;9.35;6.20;;;16.40;99.90;;;;;;4893034;29;20095;-75
2022/07/18 04:37:55;;;;;;;9.25;5.68;;;16.40;99.90;;;;;;4890529;29;20507;-75
2022/07/18 04:40:21;;;;;;;9.05;5.50;;;16.50;99.90;;;;;;4892373;29;20041;-74
2022/07/18 04:42:47;;;;;;;8.18;5.68;;;16.60;99.90;;;;;;4892866;29;20090;-75
2022/07/18 04:45:13;;;;;;;8.43;5.95;;;16.60;99.90;;;;;;4893597;29;20056;-77
2022/07/18 04:47:39;;;;;;;10.10;5.80;;;16.70;99.90;;;;;;4893497;29;20052;-76
2022/07/18 04:50:06;;;;;;;9.32;5.63;;;16.80;99.90;;;;;;4890962;29;20616;-75
2022/07/18 04:52:41;;;;;;;8.43;5.68;;;16.80;99.90;;;;;;4891046;29;20041;-74
2022/07/18 04:55:08;;;;;;;7.85;5.70;;;16.90;99.90;;;;;;4892982;29;20052;-77
2022/07/18 04:57:34;;;;;;;8.10;4.90;;;17.00;99.90;;;;;;4893014;29;20088;-75
2022/07/18 05:00:03;;;;;;;9.10;5.45;;;17.10;99.90;;;;;;4890324;29;20059;-74
2022/07/18 05:02:28;;;;;;;8.75;5.43;;;17.20;99.90;;;;;;4890971;29;20044;-75
2022/07/18 05:04:54;;;;;;;8.82;5.15;;;17.20;99.90;;;;;;4891056;29;20138;-76
2022/07/18 05:07:19;;;;;;;9.10;5.18;;;17.30;99.90;;;;;;4884256;29;20091;-74
2022/07/18 05:09:45;;;;;;;8.98;5.13;;;17.40;99.90;;;;;;4884389;29;20527;-75
2022/07/18 05:12:11;;;;;;;8.88;5.35;;;17.40;99.90;;;;;;4893225;29;20386;-75
2022/07/18 05:14:36;;;;;;;9.77;5.60;;;17.50;99.90;;;;;;4886050;29;20564;-75
2022/07/18 05:17:03;;;;;;;9.68;5.50;;;17.40;99.90;;;;;;4881942;29;20056;-75
2022/07/18 05:19:28;;;;;;;9.80;5.67;;;17.50;99.90;;;;;;4883734;29;20397;-74
2022/07/18 05:21:54;;;;;;;8.93;5.68;;;17.50;99.90;;;;;;4892100;29;20309;-76
2022/07/18 05:24:20;;;;;;;9.80;5.60;;;17.50;99.90;;;;;;4892480;29;20556;-76
2022/07/18 05:26:46;;;;;;;13.55;5.93;;;17.60;99.90;;;;;;4891219;29;20049;-76
2022/07/18 05:29:12;;;;;;;12.77;6.07;;;17.60;99.90;;;;;;4889226;29;20084;-75
2022/07/18 05:31:42;;;;;;;10.05;5.90;;;17.70;99.90;;;;;;4890432;29;20115;-76
2022/07/18 05:34:08;;;;;;;8.43;5.47;;;17.70;99.90;;;;;;4890852;29;20306;-79
2022/07/18 05:36:34;;;;;;;8.00;5.85;;;17.70;99.90;;;;;;4886449;29;20041;-77
2022/07/18 05:39:00;;;;;;;8.30;6.00;;;17.70;99.90;;;;;;4885966;29;20053;-74
2022/07/18 05:41:26;;;;;;;11.50;5.87;;;17.70;99.90;;;;;;4891418;29;20397;-74
2022/07/18 05:43:52;;;;;;;10.32;5.88;;;17.80;99.90;;;;;;4888219;29;20044;-74
2022/07/18 05:46:18;;;;;;;8.95;5.63;;;17.90;99.90;;;;;;4886459;29;20143;-73
2022/07/18 05:48:45;;;;;;;9.20;5.88;;;17.90;99.90;;;;;;4890397;29;20060;-75
2022/07/18 05:51:11;;;;;;;8.30;5.90;;;17.90;99.90;;;;;;4886108;29;20139;-75
2022/07/18 05:53:37;;;;;;;10.77;6.18;;;17.90;99.90;;;;;;4890375;29;20052;-75
2022/07/18 05:56:05;;;;;;;10.45;6.25;;;17.90;99.90;;;;;;4889249;29;20068;-75
2022/07/18 05:58:31;;;;;;;12.68;5.80;;;17.90;99.90;;;;;;4885486;29;20401;-75
2022/07/18 06:00:57;;;;;;;9.77;5.45;;;17.90;99.90;;;;;;4886924;29;20060;-75
2022/07/18 06:03:23;;;;;;;11.00;5.43;;;17.90;99.90;;;;;;4890258;29;20043;-75
2022/07/18 06:05:48;;;;;;;8.43;4.85;;;18.00;99.90;;;;;;4888684;29;20473;-75
2022/07/18 06:08:14;;;;;;;7.40;5.90;;;18.00;99.90;;;;;;4891325;29;20056;-75
2022/07/18 06:10:40;;;;;;;10.25;5.10;;;18.10;99.90;;;;;;4884046;29;20080;-75
2022/07/18 06:13:06;;;;;;;9.52;5.82;;;18.30;99.90;;;;;;4893483;29;20057;-75
2022/07/18 06:15:32;;;;;;;11.82;5.72;;;18.40;99.90;;;;;;4891216;29;20390;-75
2022/07/18 06:17:57;;;;;;;9.00;4.72;;;18.60;99.90;;;;;;4895074;29;20064;-75
2022/07/18 06:20:24;;;;;;;7.68;4.95;;;18.70;99.90;;;;;;4886848;29;20041;-75
2022/07/18 06:22:49;;;;;;;8.02;4.60;;;18.80;99.90;;;;;;4888861;29;20095;-74
2022/07/18 06:25:15;;;;;;;7.25;5.15;;;18.90;99.90;;;;;;4890090;29;20133;-75
2022/07/18 06:27:41;;;;;;;8.43;4.68;;;18.90;99.90;;;;;;4892344;29;20048;-75
2022/07/18 06:30:09;;;;;;;8.23;4.30;;;19.00;99.90;;;;;;4889410;29;20060;-74
2022/07/18 06:32:38;;;;;;;7.75;4.60;;;19.10;99.90;;;;;;4894649;29;20131;-74
2022/07/18 06:35:04;;;;;;;8.75;4.43;;;19.10;99.90;;;;;;4887881;29;20184;-75
2022/07/18 06:37:30;;;;;;;7.07;4.60;;;19.20;99.90;;;;;;4893171;29;20044;-75
2022/07/18 06:39:56;;;;;;;8.05;4.80;;;19.30;99.90;;;;;;4889979;29;20055;-76
2022/07/18 06:42:21;;;;;;;6.15;4.20;;;19.40;99.90;;;;;;4889174;29;20412;-76
2022/07/18 06:44:47;;;;;;;10.85;5.03;;;19.50;99.90;;;;;;4888456;29;20080;-72
2022/07/18 06:47:13;;;;;;;10.13;4.60;;;19.50;99.90;;;;;;4891897;29;20041;-73
2022/07/18 06:49:38;;;;;;;9.30;4.85;;;19.60;99.90;;;;;;4896403;29;20504;-72
2022/07/18 06:52:04;;;;;;;6.13;4.50;;;19.60;99.90;;;;;;4891195;29;20056;-72
2022/07/18 06:54:30;;;;;;;7.97;4.68;;;19.80;99.90;;;;;;4896643;29;20456;-72
2022/07/18 06:56:55;;;;;;;13.15;4.68;;;19.80;99.90;;;;;;4894615;29;20543;-73
2022/07/18 06:59:21;;;;;;;8.73;4.20;;;19.90;99.90;;;;;;4884648;29;20139;-74
2022/07/18 07:01:47;;;;;;;7.90;4.25;;;20.00;99.90;;;;;;4893845;29;20119;-73
2022/07/18 07:04:13;;;;;;;9.82;4.45;;;20.10;99.90;;;;;;4900104;29;20135;-73
2022/07/18 07:06:38;;;;;;;8.90;4.20;;;20.10;99.90;;;;;;4899069;29;20045;-73
2022/07/18 07:09:05;;;;;;;9.40;3.97;;;20.20;99.90;;;;;;4888532;29;20404;-72
2022/07/18 07:11:31;;;;;;;8.30;3.90;;;20.30;99.90;;;;;;4892668;29;20036;-71
2022/07/18 07:13:56;;;;;;;13.73;3.63;;;20.30;99.90;;;;;;4884310;29;20041;-72
2022/07/18 07:16:22;;;;;;;7.47;3.55;;;20.30;99.90;;;;;;4893686;29;20040;-76
2022/07/18 07:18:48;;;;;;;6.28;3.50;;;20.40;99.90;;;;;;4889027;29;20172;-73
2022/07/18 07:21:13;;;;;;;6.15;3.20;;;20.40;99.90;;;;;;4891961;29;20044;-72
2022/07/18 07:23:40;;;;;;;7.88;3.58;;;20.50;99.90;;;;;;4889790;29;20504;-73
2022/07/18 07:26:07;;;;;;;7.95;3.22;;;20.60;99.90;;;;;;4893313;29;20060;-73
2022/07/18 07:28:33;;;;;;;7.27;3.37;;;20.80;99.90;;;;;;4890685;29;20040;-73
2022/07/18 07:30:58;;;;;;;7.00;3.28;;;20.80;99.90;;;;;;4893567;29;20044;-73
2022/07/18 07:33:24;;;;;;;8.52;3.78;;;21.00;99.90;;;;;;4887262;29;20076;-72
2022/07/18 07:35:50;;;;;;;5.32;2.60;;;21.00;99.90;;;;;;4883214;29;20112;-72
2022/07/18 07:38:19;;;;;;;6.85;3.03;;;21.20;99.90;;;;;;4896349;29;20049;-73
2022/07/18 07:40:47;;;;;;;9.10;2.90;;;21.30;99.90;;;;;;4895235;29;20064;-73
2022/07/18 07:43:14;;;;;;;6.55;2.70;;;21.40;99.90;;;;;;4897154;29;20057;-72
2022/07/18 07:45:40;;;;;;;6.32;2.97;;;21.60;99.90;;;;;;4891587;29;20053;-71
2022/07/18 07:48:06;;;;;;;8.13;2.75;;;21.70;99.90;;;;;;4881838;29;20056;-71
2022/07/18 07:50:32;;;;;;;7.63;2.47;;;21.70;99.90;;;;;;4886942;29;20068;-71
2022/07/18 07:52:59;;;;;;;8.00;2.83;;;21.90;99.90;;;;;;4884701;29;20083;-72
2022/07/18 07:55:25;;;;;;;5.00;2.65;;;22.00;99.90;;;;;;4885060;29;20044;-72
2022/07/18 07:57:51;;;;;;;6.38;2.42;;;22.10;99.90;;;;;;4883634;29;20041;-73
2022/07/18 08:00:17;;;;;;;5.20;2.70;;;22.20;99.90;;;;;;4890340;29;20126;-73
2022/07/18 08:02:55;;;;;;;6.65;2.30;;;22.30;99.90;;;;;;4880901;29;20505;-74
2022/07/18 08:05:21;;;;;;;6.70;2.38;;;22.50;99.90;;;;;;4890485;29;20053;-76
2022/07/18 08:07:46;;;;;;;6.30;2.50;;;22.50;99.90;;;;;;4893732;29;20152;-73
2022/07/18 08:10:12;;;;;;;4.15;2.08;;;22.60;99.90;;;;;;4892261;29;20131;-73
2022/07/18 08:12:38;;;;;;;6.82;2.42;;;22.70;99.60;;;;;;4894257;29;20445;-72
2022/07/18 08:15:04;;;;;;;6.10;2.35;;;22.80;99.20;;;;;;4894576;29;20055;-72
2022/07/18 08:17:31;;;;;;;6.75;2.25;;;22.90;99.90;;;;;;4892526;29;20047;-72
2022/07/18 08:19:56;;;;;;;7.00;2.38;;;23.00;99.90;;;;;;4887602;29;20971;-72
2022/07/18 08:22:22;;;;;;;5.43;2.30;;;23.20;99.90;;;;;;4894653;29;20051;-72
2022/07/18 08:24:48;;;;;;;12.85;2.50;;;23.30;98.60;;;;;;4891027;29;20052;-75
2022/07/18 08:27:14;;;;;;;6.25;2.17;;;23.40;97.70;;;;;;4888329;29;20040;-73
2022/07/18 08:29:39;;;;;;;9.07;2.60;;;23.40;97.10;;;;;;4889890;29;20056;-73
2022/07/18 08:32:05;;;;;;;7.00;2.00;;;23.50;95.90;;;;;;4894884;29;20137;-75
2022/07/18 08:34:33;;;;;;;7.30;2.80;;;23.60;95.50;;;;;;4891384;29;20044;-73
2022/07/18 08:36:59;;;;;;;9.30;2.65;;;23.60;95.20;;;;;;4887260;29;20048;-72
2022/07/18 08:39:24;;;;;;;7.78;2.20;;;23.80;97.30;;;;;;4889574;29;20049;-71
2022/07/18 08:41:51;;;;;;;10.30;3.00;;;23.80;95.90;;;;;;4890911;29;20048;-73
2022/07/18 08:44:17;;;;;;;5.03;1.85;;;23.90;96.20;;;;;;4892989;29;20044;-72
2022/07/18 08:46:50;;;;;;;6.73;2.33;;;23.90;94.60;;;;;;4893867;29;20048;-74
2022/07/18 08:49:16;;;;;;;8.77;2.50;;;24.00;92.90;;;;;;4888914;29;20371;-75
2022/07/18 08:51:43;;;;;;;5.22;1.95;;;24.10;94.00;;;;;;4893088;29;20084;-73
2022/07/18 08:54:09;;;;;;;6.20;2.20;;;24.20;92.50;;;;;;4892024;29;20433;-74
2022/07/18 08:56:35;;;;;;;8.23;2.45;;;24.20;92.60;;;;;;4894579;29;20048;-73
2022/07/18 08:59:02;;;;;;;5.68;2.85;;;24.30;88.80;;;;;;4890611;29;20064;-72
2022/07/18 09:01:29;;;;;;;9.43;2.38;;;24.30;84.40;;;;;;4894376;29;20092;-73
2022/07/18 09:06:47;;;;;;;5.85;2.10;;;24.40;84.70;;;;;;4892839;29;20127;-73
2022/07/18 09:09:14;;;;;;;3.78;2.00;;;24.50;86.80;;;;;;4889794;29;20047;-71
2022/07/18 09:11:56;;;;;;;6.22;2.42;;;24.60;90.70;;;;;;4890445;29;20056;-70
2022/07/18 09:14:38;;;;;;;4.68;1.90;;;24.70;90.00;;;;;;4888900;29;20400;-71
2022/07/18 09:17:15;;;;;;;5.30;2.00;;;24.80;92.30;;;;;;4893681;29;20044;-72
2022/07/18 09:20:03;;;;;;;3.42;1.73;;;24.90;87.00;;;;;;4879951;29;20087;-72
2022/07/18 09:22:34;;;;;;;5.28;2.25;;;25.10;84.30;;;;;;4888720;29;20052;-72
2022/07/18 09:25:13;;;;;;;6.53;2.20;;;25.20;74.80;;;;;;4881961;29;20068;-72
2022/07/18 09:27:48;;;;;;;3.50;1.90;;;25.30;70.30;;;;;;4892223;29;20052;-72
2022/07/18 09:30:16;;;;;;;8.63;2.83;;;25.50;68.30;;;;;;4884739;29;20073;-72
2022/07/18 09:32:48;;;;;;;8.27;2.30;;;25.50;65.80;;;;;;4894219;29;20087;-71
2022/07/18 09:35:16;;;;;;;7.90;1.90;;;25.60;61.30;;;;;;4887913;29;20100;-72
2022/07/18 09:37:58;;;;;;;12.98;2.25;;;25.70;59.10;;;;;;4902739;29;20051;-72
2022/07/18 09:40:26;;;;;;;5.45;2.22;;;25.70;59.10;;;;;;4891028;29;20111;-73
2022/07/18 09:42:54;;;;;;;6.50;2.38;;;25.70;59.70;;;;;;4888592;29;20041;-73
2022/07/18 09:45:27;;;;;;;6.50;2.63;;;25.80;60.40;;;;;;4886273;29;20046;-72
2022/07/18 09:47:59;;;;;;;5.95;2.10;;;25.80;60.90;;;;;;4893270;29;20063;-70
2022/07/18 09:50:36;;;;;;;5.63;2.20;;;25.90;61.10;;;;;;4894612;29;20166;-70
2022/07/18 09:53:15;;;;;;;5.47;2.10;;;25.90;61.10;;;;;;4894248;29;20059;-71
2022/07/18 09:55:47;;;;;;;8.18;2.60;;;26.00;59.60;;;;;;4899174;29;20101;-72
2022/07/18 09:58:16;;;;;;;7.22;2.50;;;26.10;60.30;;;;;;4896512;29;20117;-72
2022/07/18 10:00:42;;;;;;;4.57;2.40;;;26.20;59.10;;;;;;4894202;29;20092;-71
2022/07/18 10:03:08;;;;;;;8.98;2.50;;;26.20;58.90;;;;;;4883805;29;20489;-72
2022/07/18 10:05:37;;;;;;;7.38;2.58;;;26.30;56.90;;;;;;4898209;29;20040;-72
2022/07/18 10:08:06;;;;;;;5.22;2.28;;;26.40;57.00;;;;;;4893867;29;20056;-72
2022/07/18 10:10:32;;;;;;;9.40;2.60;;;26.40;57.70;;;;;;4905920;29;20388;-71
2022/07/18 10:13:00;;;;;;;9.30;2.08;;;26.50;59.80;;;;;;4895125;29;20056;-73
2022/07/18 10:15:29;;;;;;;6.50;2.47;;;26.60;57.90;;;;;;4892211;29;20088;-72
2022/07/18 10:17:56;;;;;;;5.93;2.47;;;26.70;57.20;;;;;;4891581;29;20044;-73
2022/07/18 10:20:40;;;;;;;4.88;2.20;;;26.80;53.50;;;;;;4891713;29;20136;-70
2022/07/18 10:23:13;;;;;;;6.18;2.15;;;26.80;54.50;;;;;;4894211;29;20370;-71
2022/07/18 10:25:39;;;;;;;5.20;2.33;;;26.80;53.40;;;;;;4900124;29;20155;-71
2022/07/18 10:28:10;;;;;;;6.28;2.63;;;26.90;55.00;;;;;;4893996;29;20553;-72
2022/07/18 10:30:46;;;;;;;5.28;2.10;;;27.00;54.00;;;;;;4883266;29;20054;-73
2022/07/18 10:33:38;;;;;;;5.50;2.53;;;27.10;54.70;;;;;;4885933;29;20055;-72
2022/07/18 10:36:09;;;;;;;6.15;2.50;;;27.20;51.50;;;;;;4887638;29;20497;-79
2022/07/18 10:38:36;;;;;;;7.47;2.53;;;27.30;51.60;;;;;;4889389;29;20076;-75
2022/07/18 10:41:14;;;;;;;7.97;2.85;;;27.30;51.50;;;;;;4887412;29;20052;-76
2022/07/18 10:43:42;;;;;;;5.70;2.55;;;27.30;51.80;;;;;;4889770;29;20295;-73
2022/07/18 10:46:10;;;;;;;8.50;2.80;;;27.30;50.60;;;;;;4892102;29;20059;-72
2022/07/18 10:48:35;;;;;;;5.80;2.40;;;27.30;51.40;;;;;;4894168;29;20053;-72
2022/07/18 10:51:06;;;;;;;8.77;2.80;;;27.30;50.80;;;;;;4889030;29;20048;-72
2022/07/18 10:53:53;;;;;;;6.70;2.85;;;27.40;51.40;;;;;;4894037;29;20508;-72
2022/07/18 10:56:39;;;;;;;5.25;2.70;;;27.40;51.70;;;;;;4881587;29;20071;-73
2022/07/18 10:59:16;;;;;;;4.47;2.50;;;27.50;50.70;;;;;;4892175;29;20044;-71
2022/07/18 11:01:53;;;;;;;6.95;2.75;;;27.50;46.00;;;;;;4893228;29;20041;-71
2022/07/18 11:04:22;;;;;;;6.35;3.00;;;27.50;45.80;;;;;;4889698;29;20404;-76
2022/07/18 11:07:04;;;;;;;8.20;2.45;;;27.60;47.60;;;;;;4889803;29;20044;-76
2022/07/18 11:09:39;;;;;;;5.82;3.30;;;27.70;47.40;;;;;;4886650;29;20128;-71
2022/07/18 11:12:18;;;;;;;8.30;2.78;;;27.80;47.00;;;;;;4887822;29;20063;-71
2022/07/18 11:15:12;;;;;;;6.88;2.78;;;27.90;45.00;;;;;;4890312;29;20079;-75
2022/07/18 11:18:01;;;;;;;5.85;2.58;;;27.90;43.80;;;;;;4889269;29;20067;-75
2022/07/18 11:20:42;;;;;;;5.32;2.78;;;28.00;45.90;;;;;;4889139;29;20102;-74
2022/07/18 11:23:26;;;;;;;6.32;3.20;;;28.00;45.20;;;;;;4883848;29;20048;-75
2022/07/18 11:25:57;;;;;;;5.47;3.13;;;28.10;44.30;;;;;;4888471;29;20048;-74
2022/07/18 11:28:25;;;;;;;5.38;3.40;;;28.20;44.70;;;;;;4888506;29;20070;-74
2022/07/18 11:31:04;;;;;;;6.45;3.75;;;28.30;44.20;;;;;;4888872;29;20055;-73
2022/07/18 11:33:33;;;;;;;6.07;3.47;;;28.40;44.50;;;;;;4889447;29;20613;-71
2022/07/18 11:36:03;;;;;;;5.72;2.80;;;28.40;43.90;;;;;;4894882;29;20049;-71
2022/07/18 11:38:29;;;;;;;5.47;2.75;;;28.50;43.70;;;;;;4899701;29;20080;-71
2022/07/18 11:40:55;;;;;;;5.23;3.17;;;28.40;43.90;;;;;;4887652;29;20071;-71
2022/07/18 11:43:29;;;;;;;5.13;3.27;;;28.50;44.30;;;;;;4894452;29;20088;-71
2022/07/18 11:46:01;;;;;;;7.18;3.60;;;28.50;44.00;;;;;;4894050;29;20513;-74
2022/07/18 11:48:27;;;;;;;9.27;3.20;;;28.60;44.60;;;;;;4892084;29;20064;-74
2022/07/18 11:50:53;;;;;;;8.77;4.10;;;28.70;44.80;;;;;;4894525;29;20060;-73
2022/07/18 11:53:18;;;;;;;7.33;3.70;;;28.80;42.70;;;;;;4898441;29;20312;-73
2022/07/18 11:55:44;;;;;;;6.97;3.70;;;28.90;41.70;;;;;;4893003;29;20083;-71
2022/07/18 11:58:14;;;;;;;5.70;3.53;;;28.90;41.80;;;;;;4890618;29;20084;-70
2022/07/18 12:00:41;;;;;;;7.22;3.30;;;29.00;40.70;;;;;;4891084;29;20063;-73
2022/07/18 12:03:14;;;;;;;5.68;3.30;;;29.00;41.60;;;;;;4893696;29;20356;-73
2022/07/18 12:05:46;;;;;;;7.50;3.55;;;29.10;42.60;;;;;;4891756;29;20497;-74
2022/07/18 12:08:28;;;;;;;7.78;3.50;;;29.20;43.20;;;;;;4893495;29;20055;-74
2022/07/18 12:11:34;;;;;;;5.72;3.38;;;29.30;42.70;;;;;;4889239;29;20476;-78
2022/07/18 12:14:00;;;;;;;6.82;3.78;;;29.20;41.90;;;;;;4890875;29;20075;-76
2022/07/18 12:16:58;;;;;;;5.75;3.40;;;29.10;42.00;;;;;;4897268;29;20453;-75
2022/07/18 12:19:34;;;;;;;7.35;3.70;;;29.10;42.50;;;;;;4886843;29;20086;-75
2022/07/18 12:22:02;;;;;;;5.88;3.70;;;28.90;41.70;;;;;;4893505;29;20088;-77
2022/07/18 12:24:32;;;;;;;6.82;3.95;;;28.90;41.20;;;;;;4889448;29;20056;-75
2022/07/18 12:27:13;;;;;;;4.82;3.50;;;28.80;40.90;;;;;;4893230;29;20052;-76
2022/07/18 12:29:59;;;;;;;5.90;4.18;;;28.80;41.80;;;;;;4894089;29;20048;-76
2022/07/18 12:32:26;;;;;;;6.85;3.40;;;28.70;42.30;;;;;;4882203;29;20045;-76
2022/07/18 12:35:07;;;;;;;7.47;4.20;;;28.70;41.70;;;;;;4891966;29;20051;-76
2022/07/18 12:37:33;;;;;;;5.97;3.60;;;28.70;43.10;;;;;;4894741;29;20108;-76
2022/07/18 12:40:06;;;;;;;8.35;3.47;;;28.70;42.80;;;;;;4892990;29;20056;-75
2022/07/18 12:42:42;;;;;;;4.43;3.15;;;28.70;43.60;;;;;;4888850;29;20045;-76
2022/07/18 12:45:09;;;;;;;;;;;28.80;43.70;;;;;;4877611;29;20060;-75
2022/07/18 12:47:35;;;;;;;;;;;28.80;44.40;;;;;;4891249;29;19924;-74
2022/07/18 12:50:01;;;;;;;6.22;3.38;;;28.90;44.80;;;;;;4891306;29;20590;-74
2022/07/18 12:52:27;;;;;;;6.77;3.70;;;29.10;43.40;;;;;;4893124;29;20044;-75
2022/07/18 12:54:52;;;;;;;5.27;2.97;;;29.30;42.50;;;;;;4889182;29;20040;-75
2022/07/18 12:57:19;;;;;;;14.63;3.87;;;29.40;42.50;;;;;;4892335;29;20056;-73